Time;durP1;ratioP1;P1;durP2;ratioP2;P2;SDS_P1;SDS_P2;PMS_P1;PMS_P2;Temp;Humidity;BMP_temperature;BMP_pressure;BME280_temperature;BME280_humidity;BME280_pressure;Samples;Min_cycle;Max_cycle;Signal;HPM_P1;HPM_P2
2022/01/24 00:00:59;;;;;;;31.42;28.70;;;;;;;3.89;100.00;103481.44;5212680;28;20021;-88
2022/01/24 00:03:30;;;;;;;26.30;24.00;;;;;;;3.61;100.00;103453.03;5230292;28;20032;-88
2022/01/24 00:06:00;;;;;;;28.60;25.58;;;;;;;3.43;100.00;103420.06;5212392;28;20407;-88
2022/01/24 00:08:31;;;;;;;24.77;22.63;;;;;;;3.20;100.00;103404.38;5212900;28;20039;-87
2022/01/24 00:11:07;;;;;;;30.98;22.15;;;;;;;3.14;100.00;103399.63;5229031;28;20029;-87
2022/01/24 00:16:30;;;;;;;19.40;17.75;;;;;;;3.22;100.00;103437.09;5230508;28;20143;-87
2022/01/24 00:27:09;;;;;;;19.95;18.15;;;;;;;2.88;100.00;103394.06;5229708;28;20036;-87
2022/01/24 00:29:40;;;;;;;22.63;20.52;;;;;;;2.90;100.00;103407.25;5229776;28;20033;-88
2022/01/24 00:32:10;;;;;;;19.60;17.70;;;;;;;3.05;100.00;103443.19;5229641;28;20047;-87
2022/01/24 00:34:41;;;;;;;20.58;18.38;;;;;;;3.27;100.00;103480.25;5229393;28;20033;-88
2022/01/24 00:37:11;;;;;;;20.70;18.60;;;;;;;3.27;100.00;103480.25;5212306;28;20032;-87
2022/01/24 00:39:42;;;;;;;22.55;20.52;;;;;;;2.75;100.00;103417.53;5229759;28;20205;-87
2022/01/24 00:45:12;;;;;;;21.23;18.58;;;;;;;2.62;100.00;103385.78;5229589;28;20033;-88
2022/01/24 00:53:51;;;;;;;21.50;19.48;;;;;;;2.86;100.00;103430.72;5230121;28;20406;-87
2022/01/24 00:56:21;;;;;;;18.17;16.63;;;;;;;3.24;100.00;103485.88;5228713;28;20021;-87
2022/01/24 00:58:52;;;;;;;21.75;19.23;;;;;;;3.00;100.00;103456.13;5229657;28;20108;-87
2022/01/24 01:01:22;;;;;;;21.00;19.17;;;;;;;2.85;100.00;103413.03;5211594;28;20024;-88
2022/01/24 01:03:52;;;;;;;21.42;19.42;;;;;;;2.58;100.00;103364.91;5211162;28;20120;-88
2022/01/24 01:06:23;;;;;;;20.08;18.17;;;;;;;2.84;100.00;103402.50;5212001;28;20020;-87
2022/01/24 01:20:10;;;;;;;19.15;17.40;;;;;;;3.11;100.00;103449.78;5229426;28;20049;-87
2022/01/24 01:22:40;;;;;;;17.35;15.70;;;;;;;3.12;100.00;103443.47;5211717;28;20021;-87
2022/01/24 01:25:11;;;;;;;18.08;16.63;;;;;;;2.72;100.00;103380.47;5211478;28;20056;-88
2022/01/24 01:27:45;;;;;;;18.13;16.38;;;;;;;3.09;100.00;103447.25;5229591;28;20033;-86
2022/01/24 01:30:17;;;;;;;16.90;15.20;;;;;;;3.30;100.00;103481.78;5211219;28;20020;-87
2022/01/24 01:33:00;;;;;;;16.67;15.18;;;;;;;2.75;100.00;103406.00;5228646;28;20474;-87
2022/01/24 01:35:53;;;;;;;19.17;16.63;;;;;;;2.79;100.00;103397.59;5229309;28;20039;-87
2022/01/24 01:55:12;;;;;;;15.88;14.32;;;;;;;2.77;100.00;103415.56;5229447;28;20029;-87
2022/01/24 01:57:42;;;;;;;16.98;15.43;;;;;;;3.09;100.00;103457.94;5228386;28;20024;-88
2022/01/24 02:00:13;;;;;;;20.45;14.43;;;;;;;2.44;100.00;103371.50;5229266;28;20033;-88
2022/01/24 02:02:44;;;;;;;14.90;13.50;;;;;;;2.94;100.00;103433.50;5212162;28;20483;-87
2022/01/24 02:05:15;;;;;;;19.10;17.17;;;;;;;3.05;100.00;103452.03;5227744;28;20032;-87
2022/01/24 02:07:50;;;;;;;20.00;18.00;;;;;;;3.09;100.00;103457.09;5228149;28;20494;-87
2022/01/24 02:10:23;;;;;;;21.42;16.48;;;;;;;2.88;100.00;103438.59;5211125;28;20028;-87
2022/01/24 02:12:55;;;;;;;21.23;19.30;;;;;;;2.56;100.00;103397.06;5228968;28;20398;-86
2022/01/24 02:15:39;;;;;;;19.88;18.38;;;;;;;2.59;100.00;103395.94;5228167;28;20029;-87
2022/01/24 02:23:47;;;;;;;18.98;16.98;;;;;;;3.05;100.00;103467.22;5232581;28;20087;-87
2022/01/24 02:26:21;;;;;;;21.30;19.55;;;;;;;3.05;100.00;103473.41;5215147;28;20052;-87
2022/01/24 02:34:19;;;;;;;21.98;19.95;;;;;;;3.00;100.00;103464.97;5221375;28;20507;-84
2022/01/24 02:36:52;;;;;;;20.30;18.17;;;;;;;2.99;100.00;103465.13;5220978;28;20021;-83
2022/01/24 02:53:19;;;;;;;21.65;19.73;;;;;;;2.87;100.00;103471.59;5219739;28;20032;-84
2022/01/24 02:55:50;;;;;;;21.88;19.83;;;;;;;2.61;100.00;103418.78;5201401;28;20021;-84
2022/01/24 02:58:21;;;;;;;22.65;20.48;;;;;;;2.65;100.00;103438.03;5219445;28;20021;-83
2022/01/24 03:00:52;;;;;;;19.23;17.42;;;;;;;2.55;100.00;103414.03;5219738;28;20052;-84
2022/01/24 03:03:23;;;;;;;21.45;19.42;;;;;;;2.88;100.00;103473.28;5200940;28;20029;-84
2022/01/24 03:05:53;;;;;;;22.50;20.48;;;;;;;2.76;100.00;103451.22;5219474;28;20048;-84
2022/01/24 03:08:24;;;;;;;20.73;18.67;;;;;;;2.79;100.00;103456.28;5219764;28;20033;-84
2022/01/24 03:10:55;;;;;;;18.55;16.85;;;;;;;2.56;100.00;103407.72;5200782;28;20085;-84
2022/01/24 03:15:58;;;;;;;26.00;23.23;;;;;;;2.84;100.00;103453.19;5219170;28;20026;-84
2022/01/24 03:18:29;;;;;;;20.27;18.02;;;;;;;2.53;100.00;103405.31;5201101;28;20018;-84
2022/01/24 03:21:00;;;;;;;18.02;16.45;;;;;;;2.84;100.00;103453.19;5202022;28;20036;-83
2022/01/24 03:23:31;;;;;;;19.75;17.80;;;;;;;2.83;100.00;103448.84;5218610;28;20037;-84
2022/01/24 03:26:02;;;;;;;19.77;17.80;;;;;;;2.63;100.00;103408.81;5201435;28;20060;-84
2022/01/24 03:28:32;;;;;;;20.08;18.17;;;;;;;2.46;100.00;103385.53;5218743;28;20391;-83
2022/01/24 03:31:03;;;;;;;19.77;18.00;;;;;;;2.59;100.00;103401.25;5201497;28;20025;-84
2022/01/24 03:33:34;;;;;;;20.13;17.95;;;;;;;2.70;100.00;103415.28;5201283;28;20026;-84
2022/01/24 03:36:04;;;;;;;19.23;17.50;;;;;;;2.50;100.00;103381.59;5218698;28;20056;-84
2022/01/24 03:38:35;;;;;;;21.30;19.15;;;;;;;2.53;100.00;103394.66;5201023;28;20124;-83
2022/01/24 03:41:05;;;;;;;21.60;18.55;;;;;;;2.63;100.00;103415.97;5201711;28;20030;-83
2022/01/24 03:43:36;;;;;;;18.75;17.08;;;;;;;2.65;100.00;103417.53;5200130;28;20036;-83
2022/01/24 03:48:47;;;;;;;17.48;15.95;;;;;;;2.61;100.00;103426.78;5218891;28;20048;-83
2022/01/24 03:51:20;;;;;;;20.40;18.48;;;;;;;2.69;100.00;103421.59;5218704;28;20049;-83
2022/01/24 03:53:50;;;;;;;18.77;17.08;;;;;;;2.62;100.00;103404.47;5200475;28;20029;-84
2022/01/24 03:56:21;;;;;;;18.83;17.05;;;;;;;2.70;100.00;103425.09;5217400;28;20152;-84
2022/01/24 03:58:51;;;;;;;19.70;17.85;;;;;;;2.54;100.00;103400.84;5200370;28;20029;-84
2022/01/24 04:01:22;;;;;;;21.70;18.95;;;;;;;2.74;100.00;103433.69;5199970;28;20021;-83
2022/01/24 04:03:52;;;;;;;19.58;17.50;;;;;;;2.56;100.00;103401.53;5200060;28;20132;-83
2022/01/24 04:06:23;;;;;;;18.95;17.17;;;;;;;2.53;100.00;103397.31;5218288;28;20067;-83
2022/01/24 04:08:53;;;;;;;17.77;15.75;;;;;;;2.69;100.00;103428.75;5200416;28;20039;-84
2022/01/24 04:11:32;;;;;;;20.08;18.10;;;;;;;2.68;100.00;103435.91;5199522;28;20040;-84
2022/01/24 04:14:25;;;;;;;19.10;17.33;;;;;;;2.49;100.00;103406.59;5199721;28;20029;-84
2022/01/24 04:22:37;;;;;;;18.77;17.15;;;;;;;2.66;100.00;103434.38;5218338;28;20026;-84
2022/01/24 04:25:14;;;;;;;19.77;17.67;;;;;;;2.44;100.00;103394.66;5199429;28;20025;-83
2022/01/24 04:27:44;;;;;;;19.52;17.77;;;;;;;2.63;100.00;103435.50;5217820;28;20033;-84
2022/01/24 04:30:14;;;;;;;19.42;17.45;;;;;;;2.44;100.00;103402.66;5216812;28;20025;-84
2022/01/24 04:32:45;;;;;;;19.25;17.33;;;;;;;2.56;100.00;103422.88;5200183;28;20060;-85
2022/01/24 04:35:16;;;;;;;19.15;17.08;;;;;;;2.54;100.00;103419.50;5199384;28;20045;-84
2022/01/24 04:37:46;;;;;;;21.00;18.98;;;;;;;2.54;100.00;103420.34;5199192;28;20036;-84
2022/01/24 04:40:16;;;;;;;21.02;18.98;;;;;;;2.43;100.00;103417.81;5198982;28;20041;-84
2022/01/24 04:42:55;;;;;;;21.48;19.25;;;;;;;2.52;100.00;103421.47;5199028;28;20029;-84
2022/01/24 04:45:58;;;;;;;21.23;19.23;;;;;;;2.41;100.00;103414.44;5214701;28;20018;-85
2022/01/24 04:57:00;;;;;;;19.40;17.83;;;;;;;2.56;100.00;103444.22;5215330;28;20399;-84
2022/01/24 04:59:31;;;;;;;20.60;18.80;;;;;;;2.53;100.00;103450.69;5197678;28;20272;-84
2022/01/24 05:02:02;;;;;;;18.73;16.83;;;;;;;2.49;100.00;103446.59;5215328;28;20033;-84
2022/01/24 05:04:33;;;;;;;21.98;19.98;;;;;;;2.54;100.00;103447.03;5197147;28;20029;-84
2022/01/24 05:07:04;;;;;;;20.80;18.80;;;;;;;2.55;100.00;103442.53;5197727;28;20026;-85
2022/01/24 05:09:40;;;;;;;20.00;17.73;;;;;;;2.33;100.00;103406.28;5197548;28;20104;-84
2022/01/24 05:26:03;;;;;;;19.48;17.45;;;;;;;2.48;100.00;103425.41;5216305;28;20094;-84
2022/01/24 05:28:37;;;;;;;17.60;16.08;;;;;;;2.62;100.00;103441.81;5197789;28;20087;-84
2022/01/24 05:31:08;;;;;;;18.23;16.63;;;;;;;2.54;100.00;103430.19;5198343;28;20567;-84
2022/01/24 05:33:38;;;;;;;17.83;16.23;;;;;;;2.47;100.00;103418.38;5199926;28;20025;-84
2022/01/24 05:36:08;;;;;;;17.85;16.08;;;;;;;2.41;100.00;103414.44;5203582;28;20055;-84
2022/01/24 05:38:39;;;;;;;17.90;16.10;;;;;;;2.37;100.00;103407.69;5197045;28;20017;-84
2022/01/24 05:41:10;;;;;;;20.95;18.80;;;;;;;2.47;100.00;103418.38;5214811;28;20021;-84
2022/01/24 05:43:40;;;;;;;18.33;16.45;;;;;;;2.37;100.00;103399.69;5196754;28;20032;-83
2022/01/24 05:46:10;;;;;;;20.50;18.67;;;;;;;2.51;100.00;103425.13;5195428;28;20135;-85
2022/01/24 05:48:41;;;;;;;18.63;16.77;;;;;;;2.34;100.00;103397.31;5195558;28;20157;-85
2022/01/24 05:51:11;;;;;;;19.00;17.15;;;;;;;2.45;100.00;103421.19;5195854;28;20041;-85
2022/01/24 05:53:41;;;;;;;17.10;15.45;;;;;;;2.41;100.00;103422.44;5217569;28;20030;-85
2022/01/24 05:56:12;;;;;;;19.63;17.92;;;;;;;2.28;100.00;103397.88;5199765;28;20024;-84
2022/01/24 05:58:43;;;;;;;22.90;20.75;;;;;;;2.35;100.00;103399.84;5217505;28;20017;-84
2022/01/24 06:01:13;;;;;;;19.92;18.20;;;;;;;2.51;100.00;103443.78;5200215;28;20471;-85
2022/01/24 06:03:43;;;;;;;18.85;17.05;;;;;;;2.17;100.00;103387.34;5198272;28;20487;-84
2022/01/24 06:06:14;;;;;;;18.13;16.60;;;;;;;2.47;100.00;103434.38;5196636;28;20503;-85
2022/01/24 06:08:44;;;;;;;20.55;18.45;;;;;;;2.17;100.00;103395.34;5199626;28;20060;-85
2022/01/24 06:11:14;;;;;;;20.60;18.60;;;;;;;2.26;100.00;103411.34;5199918;28;20022;-85
2022/01/24 06:13:49;;;;;;;23.13;18.55;;;;;;;2.19;100.00;103406.72;5199993;28;20025;-85
2022/01/24 06:16:20;;;;;;;20.02;18.20;;;;;;;2.31;100.00;103432.28;5199630;28;20028;-85
2022/01/24 06:18:50;;;;;;;18.65;17.00;;;;;;;2.14;100.00;103414.28;5205877;28;20049;-85
2022/01/24 06:21:21;;;;;;;23.35;19.00;;;;;;;2.25;100.00;103432.81;5203595;28;20061;-85
2022/01/24 06:23:51;;;;;;;19.90;18.02;;;;;;;2.14;100.00;103419.59;5221313;28;20080;-85
2022/01/24 06:26:22;;;;;;;17.55;16.10;;;;;;;2.23;100.00;103438.28;5222715;28;20036;-84
2022/01/24 06:28:52;;;;;;;20.40;18.58;;;;;;;2.16;100.00;103425.63;5203985;28;20022;-85
2022/01/24 06:31:22;;;;;;;17.45;15.95;;;;;;;2.02;100.00;103411.72;5235567;28;20501;-86
2022/01/24 06:33:53;;;;;;;20.75;18.63;;;;;;;2.00;100.00;103405.72;5223789;28;20115;-86
2022/01/24 06:36:24;;;;;;;19.25;17.35;;;;;;;2.21;100.00;103444.75;5219146;28;20037;-85
2022/01/24 06:38:55;;;;;;;19.38;16.00;;;;;;;1.89;100.00;103400.47;5218943;28;20063;-85
2022/01/24 06:41:32;;;;;;;19.25;17.63;;;;;;;2.02;100.00;103433.03;5218699;28;20032;-85
2022/01/24 06:44:03;;;;;;;20.60;18.55;;;;;;;2.13;100.00;103441.91;5218064;28;20020;-85
2022/01/24 06:46:33;;;;;;;19.27;17.35;;;;;;;2.03;100.00;103425.88;5219510;28;20036;-85
2022/01/24 06:49:05;;;;;;;20.13;17.20;;;;;;;2.03;100.00;103431.22;5237435;28;20376;-85
2022/01/24 06:51:36;;;;;;;17.95;16.45;;;;;;;2.16;100.00;103455.81;5218911;28;20032;-84
2022/01/24 06:54:06;;;;;;;22.65;19.73;;;;;;;2.12;100.00;103454.38;5235548;28;20025;-85
2022/01/24 06:56:37;;;;;;;23.23;20.33;;;;;;;2.17;100.00;103459.31;5238259;28;20052;-85
2022/01/24 06:59:07;;;;;;;18.70;16.92;;;;;;;2.10;100.00;103450.16;5220188;28;20021;-85
2022/01/24 07:01:38;;;;;;;19.75;17.67;;;;;;;2.15;100.00;103469.28;5218818;28;20025;-84
2022/01/24 07:04:08;;;;;;;31.33;19.58;;;;;;;2.12;100.00;103459.72;5237156;28;20024;-85
2022/01/24 07:06:38;;;;;;;20.75;18.48;;;;;;;1.96;100.00;103438.09;5220079;28;20491;-85
2022/01/24 07:09:09;;;;;;;19.70;17.52;;;;;;;1.87;100.00;103421.09;5219966;28;20021;-85
2022/01/24 07:11:40;;;;;;;21.27;19.23;;;;;;;2.03;100.00;103442.72;5237496;28;20048;-85
2022/01/24 07:14:13;;;;;;;30.77;17.77;;;;;;;1.84;100.00;103428.50;5237999;28;20396;-84
2022/01/24 07:19:19;;;;;;;21.52;19.33;;;;;;;1.77;100.00;103425.53;5233912;28;20036;-84
2022/01/24 07:21:50;;;;;;;22.17;19.38;;;;;;;2.00;100.00;103463.50;5234200;28;20041;-85
2022/01/24 07:24:20;;;;;;;20.02;18.00;;;;;;;1.92;100.00;103458.84;5217464;28;20025;-84
2022/01/24 07:26:51;;;;;;;23.58;20.77;;;;;;;1.96;100.00;103457.59;5233980;28;20036;-84
2022/01/24 07:29:25;;;;;;;19.63;17.52;;;;;;;1.90;100.00;103447.47;5234460;28;20025;-83
2022/01/24 07:31:56;;;;;;;22.98;20.27;;;;;;;1.93;100.00;103457.84;5233700;28;20439;-84
2022/01/24 07:34:27;;;;;;;22.80;20.42;;;;;;;1.62;100.00;103408.25;5215507;28;20102;-84
2022/01/24 07:36:57;;;;;;;18.83;17.08;;;;;;;1.87;100.00;103457.53;5233944;28;20399;-84
2022/01/24 07:39:28;;;;;;;21.83;18.70;;;;;;;1.88;100.00;103469.91;5215616;28;20031;-85
2022/01/24 07:42:04;;;;;;;25.52;21.50;;;;;;;1.61;100.00;103415.41;5233344;28;20040;-84
2022/01/24 07:44:34;;;;;;;21.73;19.77;;;;;;;1.92;100.00;103466.81;5232535;28;20028;-81
2022/01/24 07:47:04;;;;;;;22.38;18.42;;;;;;;1.72;100.00;103426.94;5233269;28;20029;-82
2022/01/24 07:49:35;;;;;;;26.63;22.35;;;;;;;1.71;100.00;103427.91;5223998;28;20030;-82
2022/01/24 07:52:06;;;;;;;23.02;20.65;;;;;;;1.69;100.00;103414.72;5194198;28;20037;-84
2022/01/24 07:54:36;;;;;;;21.42;19.38;;;;;;;1.92;100.00;103453.50;5211807;28;20499;-85
2022/01/24 07:57:07;;;;;;;23.20;20.42;;;;;;;1.93;100.00;103443.69;5212366;28;20029;-81
2022/01/24 07:59:37;;;;;;;19.27;17.35;;;;;;;2.12;100.00;103475.72;5192854;28;20074;-82
2022/01/24 08:02:08;;;;;;;22.60;20.60;;;;;;;2.00;100.00;103453.69;5209154;28;20100;-83
2022/01/24 08:04:38;;;;;;;21.27;19.05;;;;;;;2.12;100.00;103467.72;5191929;28;20071;-83
2022/01/24 08:07:08;;;;;;;23.13;20.45;;;;;;;2.14;100.00;103459.59;5209683;28;20159;-84
2022/01/24 08:09:39;;;;;;;22.75;20.45;;;;;;;2.14;100.00;103454.25;5209393;28;20110;-82
2022/01/24 08:12:10;;;;;;;21.45;19.27;;;;;;;2.19;100.00;103450.19;5191053;28;20032;-82
2022/01/24 08:14:40;;;;;;;21.77;19.60;;;;;;;2.33;100.00;103470.28;5191143;28;20463;-82
2022/01/24 08:17:10;;;;;;;23.40;21.08;;;;;;;2.35;100.00;103473.66;5209611;28;20167;-83
2022/01/24 08:19:41;;;;;;;23.17;19.33;;;;;;;2.24;100.00;103447.13;5210008;28;20032;-81
2022/01/24 08:22:13;;;;;;;23.20;20.77;;;;;;;2.49;100.00;103483.94;5192117;28;20032;-83
2022/01/24 08:24:43;;;;;;;21.73;19.08;;;;;;;2.55;100.00;103485.22;5192481;28;20483;-84
2022/01/24 08:27:15;;;;;;;20.80;18.83;;;;;;;2.61;100.00;103480.13;5192034;28;20120;-83
2022/01/24 08:29:49;;;;;;;25.58;22.85;;;;;;;2.67;100.00;103481.41;5190173;28;20084;-85
2022/01/24 08:32:19;;;;;;;23.67;21.40;;;;;;;2.67;100.00;103470.75;5194075;28;20175;-84
2022/01/24 08:34:50;;;;;;;21.73;19.58;;;;;;;2.80;100.00;103489.16;5210780;28;20045;-85
2022/01/24 08:37:20;;;;;;;22.50;20.35;;;;;;;2.61;100.00;103450.78;5213379;28;20025;-85
2022/01/24 08:39:50;;;;;;;24.25;21.58;;;;;;;2.65;100.00;103460.22;5198202;28;20022;-86
2022/01/24 08:47:36;;;;;;;22.88;20.35;;;;;;;2.66;100.00;103435.22;5215282;28;20048;-85
2022/01/24 08:50:06;;;;;;;21.30;19.42;;;;;;;2.76;100.00;103445.06;5196370;28;20471;-85
2022/01/24 08:52:37;;;;;;;21.63;19.48;;;;;;;2.95;100.00;103469.88;5197091;28;20056;-86
2022/01/24 08:55:08;;;;;;;20.65;18.85;;;;;;;2.39;100.00;103363.06;5196510;28;20476;-86
2022/01/24 08:57:40;;;;;;;20.52;18.48;;;;;;;3.17;100.00;103490.13;5196915;28;20076;-85
2022/01/24 09:00:11;;;;;;;17.90;16.10;;;;;;;3.24;100.00;103504.56;5196704;28;20025;-84
2022/01/24 09:02:41;;;;;;;21.08;19.00;;;;;;;3.21;100.00;103479.97;5196149;28;20030;-86
2022/01/24 09:05:12;;;;;;;22.58;20.35;;;;;;;3.28;100.00;103473.06;5215515;28;20081;-86
2022/01/24 09:07:43;;;;;;;25.60;17.73;;;;;;;3.36;100.00;103490.06;5196830;28;20029;-86
2022/01/24 09:10:13;;;;;;;21.30;19.20;;;;;;;2.92;100.00;103403.44;5196675;28;20040;-84
2022/01/24 09:12:44;;;;;;;22.45;20.27;;;;;;;3.29;100.00;103466.75;5214097;28;20029;-85
2022/01/24 09:15:15;;;;;;;23.42;19.45;;;;;;;3.62;100.00;103508.13;5214404;28;20384;-86
2022/01/24 09:17:45;;;;;;;21.17;19.15;;;;;;;3.70;100.00;103505.59;5214548;28;20025;-86
2022/01/24 09:20:15;;;;;;;26.17;21.60;;;;;;;3.77;100.00;103511.16;5214107;28;20096;-84
2022/01/24 09:22:47;;;;;;;23.00;18.33;;;;;;;3.66;100.00;103489.00;5196304;28;20028;-84
2022/01/24 09:25:20;;;;;;;20.27;18.08;;;;;;;3.77;100.00;103514.69;5216176;28;20079;-86
2022/01/24 09:27:50;;;;;;;19.27;17.70;;;;;;;3.89;100.00;103521.53;5218443;28;20040;-85
2022/01/24 09:30:23;;;;;;;19.98;18.20;;;;;;;3.92;100.00;103507.88;5217275;28;20025;-85
2022/01/24 09:32:53;;;;;;;20.75;17.63;;;;;;;3.95;100.00;103494.22;5200961;28;20025;-86
2022/01/24 09:35:27;;;;;;;21.10;18.75;;;;;;;4.02;100.00;103502.50;5217574;28;20199;-86
2022/01/24 09:37:58;;;;;;;18.83;16.75;;;;;;;3.97;100.00;103486.06;5202379;28;20028;-84
2022/01/24 09:40:28;;;;;;;19.90;17.92;;;;;;;4.19;100.00;103495.50;5203900;28;20021;-86
2022/01/24 09:42:59;;;;;;;19.90;17.92;;;;;;;4.03;100.00;103478.31;5217099;28;20083;-83
2022/01/24 09:45:29;;;;;;;20.58;18.42;;;;;;;4.19;100.00;103492.84;5198306;28;20018;-84
2022/01/24 09:48:00;;;;;;;16.02;14.50;;;;;;;4.07;100.00;103473.47;5215657;28;20025;-86
2022/01/24 09:50:31;;;;;;;18.20;16.27;;;;;;;4.22;100.00;103482.69;5221865;28;20048;-84
2022/01/24 09:53:01;;;;;;;19.17;17.25;;;;;;;4.35;100.00;103523.28;5204246;28;20026;-83
2022/01/24 09:55:32;;;;;;;20.42;18.30;;;;;;;3.66;100.00;103390.13;5225823;28;20032;-84
2022/01/24 09:58:02;;;;;;;19.75;17.75;;;;;;;4.22;100.00;103463.13;5205675;28;20021;-83
2022/01/24 10:00:33;;;;;;;18.10;16.35;;;;;;;4.03;100.00;103432.00;5215010;28;20030;-83
2022/01/24 10:03:06;;;;;;;18.80;16.98;;;;;;;3.91;100.00;103412.66;5215155;28;20034;-83
2022/01/24 10:05:37;;;;;;;21.95;16.63;;;;;;;4.24;100.00;103453.97;5212713;28;20056;-83
2022/01/24 10:08:16;;;;;;;19.45;17.42;;;;;;;4.65;100.00;103502.53;5215572;28;20040;-81
2022/01/24 10:10:56;;;;;;;19.70;17.83;;;;;;;4.67;100.00;103501.38;5215226;28;20026;-82
2022/01/24 10:16:44;;;;;;;22.73;20.48;;;;;;;4.67;100.00;103505.91;5215432;28;20169;-82
2022/01/24 10:19:19;;;;;;;19.67;17.73;;;;;;;4.75;100.00;103509.50;5214992;28;20025;-82
2022/01/24 10:21:56;;;;;;;18.40;16.70;;;;;;;4.72;100.00;103477.69;5218974;28;20072;-86
2022/01/24 10:24:26;;;;;;;20.23;18.27;;;;;;;4.97;100.00;103496.63;5197428;28;20033;-83
2022/01/24 10:27:15;;;;;;;20.55;18.73;;;;;;;4.73;100.00;103457.09;5214518;28;20025;-83
2022/01/24 10:30:08;;;;;;;23.38;19.65;;;;;;;4.84;100.00;103466.75;5196530;28;20513;-82
2022/01/24 10:32:43;;;;;;;18.88;17.17;;;;;;;5.01;100.00;103493.50;5213612;28;20025;-83
2022/01/24 10:35:36;;;;;;;17.15;15.35;;;;;;;5.07;100.00;103486.69;5213002;28;20049;-83
2022/01/24 10:38:41;;;;;;;24.50;18.48;;;;;;;5.06;100.00;103476.97;5213193;28;20577;-83
2022/01/24 10:43:55;;;;;;;14.97;13.53;;;;;;;4.98;100.00;103444.75;5213946;28;20080;-85
2022/01/24 10:46:27;;;;;;;19.80;17.92;;;;;;;5.29;100.00;103483.50;5192936;28;20504;-83
2022/01/24 10:49:12;;;;;;;20.63;18.77;;;;;;;5.30;100.00;103477.13;5194658;28;20041;-84
2022/01/24 10:51:47;;;;;;;19.95;17.88;;;;;;;4.93;100.00;103393.50;5211342;28;20029;-85
2022/01/24 10:54:28;;;;;;;21.35;18.10;;;;;;;5.37;100.00;103475.53;5210186;28;20032;-84
2022/01/24 10:56:59;;;;;;;19.17;17.55;;;;;;;5.35;100.00;103463.28;5214243;28;20101;-84
2022/01/24 10:59:29;;;;;;;24.00;21.70;;;;;;;5.40;100.00;103461.81;5212439;28;20041;-83
2022/01/24 11:02:03;;;;;;;18.25;16.65;;;;;;;5.39;100.00;103462.81;5213145;28;20022;-84
2022/01/24 11:04:34;;;;;;;23.00;18.60;;;;;;;4.86;100.00;103381.75;5214087;28;20021;-85
2022/01/24 11:07:05;;;;;;;20.20;18.10;;;;;;;5.22;100.00;103447.59;5213170;28;20520;-85
2022/01/24 11:09:40;;;;;;;20.70;18.65;;;;;;;4.92;100.00;103403.38;5213651;28;20041;-85
2022/01/24 11:12:12;;;;;;;18.73;16.80;;;;;;;5.06;100.00;103459.06;5214188;28;20022;-85
2022/01/24 11:14:45;;;;;;;21.05;19.08;;;;;;;4.78;100.00;103451.28;5220488;28;20029;-84
2022/01/24 11:17:23;;;;;;;25.73;17.40;;;;;;;4.63;100.00;103446.47;5224846;28;20044;-85
2022/01/24 11:20:00;;;;;;;19.27;17.60;;;;;;;4.48;100.00;103437.31;5193220;28;20026;-85
2022/01/24 11:22:34;;;;;;;21.35;19.10;;;;;;;4.57;100.00;103444.44;5208544;28;20057;-83
2022/01/24 11:25:07;;;;;;;20.13;17.95;;;;;;;4.48;100.00;103425.78;5209569;28;20071;-83
2022/01/24 11:27:47;;;;;;;24.30;21.88;;;;;;;4.57;100.00;103439.09;5192175;28;20506;-85
2022/01/24 11:30:22;;;;;;;21.83;19.58;;;;;;;4.51;100.00;103418.28;5190711;28;20041;-84
2022/01/24 11:32:56;;;;;;;22.45;19.75;;;;;;;4.72;100.00;103445.56;5190472;28;20033;-85
2022/01/24 11:35:44;;;;;;;19.60;16.58;;;;;;;4.80;100.00;103435.94;5208942;28;20147;-84
2022/01/24 11:38:30;;;;;;;24.55;20.33;;;;;;;4.41;100.00;103372.88;5208786;28;20025;-84
2022/01/24 11:41:23;;;;;;;25.48;18.75;;;;;;;4.86;100.00;103438.84;5190822;28;20029;-83
2022/01/24 11:44:06;;;;;;;23.02;20.98;;;;;;;4.89;100.00;103435.84;5208142;28;20025;-84
2022/01/24 11:46:52;;;;;;;20.58;18.77;;;;;;;4.87;100.00;103428.97;5190562;28;20017;-84
2022/01/24 11:49:32;;;;;;;22.38;20.00;;;;;;;4.80;100.00;103431.41;5206172;28;20022;-84
2022/01/24 11:52:12;;;;;;;19.80;17.73;;;;;;;4.81;100.00;103432.25;5190059;28;20109;-85
2022/01/24 11:57:37;;;;;;;21.98;19.70;;;;;;;4.74;100.00;103410.59;5207931;28;20525;-84
2022/01/24 12:00:07;;;;;;;22.98;20.67;;;;;;;4.83;100.00;103419.56;5208049;28;20025;-84
2022/01/24 12:02:56;;;;;;;23.25;21.15;;;;;;;4.51;100.00;103354.06;5211516;28;20025;-86
2022/01/24 12:05:28;;;;;;;23.60;20.52;;;;;;;5.06;100.00;103410.84;5208668;28;20395;-83
2022/01/24 12:08:03;;;;;;;19.10;17.20;;;;;;;4.77;100.00;103354.09;5207735;28;20073;-85
2022/01/24 12:10:36;;;;;;;21.58;19.35;;;;;;;5.14;100.00;103411.91;5207290;28;20036;-84
2022/01/24 12:13:14;;;;;;;23.52;19.20;;;;;;;5.21;100.00;103404.91;5207297;28;20029;-84
2022/01/24 12:16:00;;;;;;;23.75;20.00;;;;;;;5.21;100.00;103387.00;5206952;28;20502;-84
2022/01/24 12:18:33;;;;;;;28.90;17.88;;;;;;;5.29;100.00;103400.44;5207108;28;20108;-84
2022/01/24 12:21:13;;;;;;;20.08;17.95;;;;;;;5.10;100.00;103371.22;5189299;28;20391;-85
2022/01/24 12:23:52;;;;;;;18.25;16.45;;;;;;;5.11;100.00;103364.84;5189214;28;20025;-85
2022/01/24 12:26:26;;;;;;;22.37;20.00;;;;;;;4.90;100.00;103308.16;5188821;28;20030;-85
2022/01/24 12:29:09;;;;;;;20.77;18.48;;;;;;;5.47;100.00;103375.44;5188399;28;20109;-86
2022/01/24 12:31:45;;;;;;;24.15;21.65;;;;;;;5.49;100.00;103376.91;5206979;28;20036;-83
2022/01/24 12:34:35;;;;;;;22.48;20.42;;;;;;;5.40;100.00;103349.28;5189229;28;20506;-84
2022/01/24 12:37:07;;;;;;;;;;;;;;;5.53;100.00;103370.25;5191017;28;20029;-84
2022/01/24 12:39:49;;;;;;;23.88;20.15;;;;;;;5.25;100.00;103307.16;5188468;28;20020;-85
2022/01/24 12:42:30;;;;;;;24.38;19.95;;;;;;;4.93;100.00;103273.84;5189423;28;20026;-84
2022/01/24 12:48:13;;;;;;;22.88;20.67;;;;;;;5.45;100.00;103372.06;5207311;28;20039;-83
2022/01/24 12:50:51;;;;;;;22.55;20.08;;;;;;;5.39;100.00;103373.53;5206854;28;20079;-85
2022/01/24 12:53:22;;;;;;;17.75;15.93;;;;;;;5.33;100.00;103340.19;5188652;28;20076;-84
2022/01/24 12:56:01;;;;;;;28.23;20.65;;;;;;;5.60;100.00;103370.44;5188338;28;20454;-81
2022/01/24 12:58:38;;;;;;;20.80;18.70;;;;;;;5.51;100.00;103341.91;5206784;28;20053;-81
2022/01/24 13:01:31;;;;;;;18.95;16.92;;;;;;;5.71;100.00;103362.97;5207794;28;20021;-83
2022/01/24 13:04:10;;;;;;;21.92;19.75;;;;;;;5.52;100.00;103367.72;5208455;28;20025;-81
2022/01/24 13:06:46;;;;;;;16.27;14.77;;;;;;;5.21;100.00;103341.47;5190530;28;20028;-82
2022/01/24 13:09:19;;;;;;;19.60;17.65;;;;;;;5.49;100.00;103371.56;5208078;28;20806;-85
2022/01/24 13:11:57;;;;;;;20.88;19.23;;;;;;;5.46;100.00;103355.00;5208366;28;20076;-83
2022/01/24 13:14:47;;;;;;;23.40;17.48;;;;;;;5.35;100.00;103332.81;5207980;28;20030;-82
2022/01/24 13:23:03;;;;;;;21.05;18.88;;;;;;;5.70;100.00;103339.00;5208914;28;20565;-83
2022/01/24 13:25:38;;;;;;;21.08;18.88;;;;;;;5.79;100.00;103346.03;5208456;28;20033;-83
2022/01/24 13:28:14;;;;;;;25.52;20.83;;;;;;;5.82;100.00;103326.09;5210712;28;20040;-83
2022/01/24 13:30:47;;;;;;;27.55;21.70;;;;;;;5.86;100.00;103322.09;5212969;28;20029;-82
2022/01/24 13:33:24;;;;;;;24.48;22.13;;;;;;;5.85;100.00;103342.72;5212728;28;20097;-82
2022/01/24 13:35:59;;;;;;;23.98;19.77;;;;;;;5.73;100.00;103327.94;5214039;28;20100;-83
2022/01/24 13:38:33;;;;;;;23.05;18.92;;;;;;;5.72;100.00;103340.50;5212537;28;20026;-83
2022/01/24 13:41:11;;;;;;;24.13;21.13;;;;;;;5.76;100.00;103347.22;5212322;28;20036;-82
2022/01/24 13:43:41;;;;;;;24.77;22.25;;;;;;;5.83;100.00;103342.03;5212367;28;20030;-83
2022/01/24 13:46:14;;;;;;;27.48;20.83;;;;;;;5.92;100.00;103343.75;5212600;28;20032;-83
2022/01/24 13:49:00;;;;;;;22.10;20.15;;;;;;;5.85;100.00;103341.88;5212268;28;20036;-84